sensor_id;sensor_type;location;lat;lon;timestamp;temperature;humidity
6146;DHT22;3104;50.348;7.620;2022-12-29T00:01:29;11.80;99.90
6146;DHT22;3104;50.348;7.620;2022-12-29T00:03:54;11.80;99.90
6146;DHT22;3104;50.348;7.620;2022-12-29T00:06:20;11.80;99.90
6146;DHT22;3104;50.348;7.620;2022-12-29T00:08:45;11.90;99.90
6146;DHT22;3104;50.348;7.620;2022-12-29T00:11:16;11.80;99.90
6146;DHT22;3104;50.348;7.620;2022-12-29T00:13:42;11.80;99.90
6146;DHT22;3104;50.348;7.620;2022-12-29T00:16:27;11.70;99.90
6146;DHT22;3104;50.348;7.620;2022-12-29T00:18:53;11.70;99.90
6146;DHT22;3104;50.348;7.620;2022-12-29T00:21:21;11.70;99.90
6146;DHT22;3104;50.348;7.620;2022-12-29T00:24:08;11.60;99.90
6146;DHT22;3104;50.348;7.620;2022-12-29T00:27:12;11.60;99.90
6146;DHT22;3104;50.348;7.620;2022-12-29T00:29:57;11.60;99.90
6146;DHT22;3104;50.348;7.620;2022-12-29T00:32:41;11.50;99.90
6146;DHT22;3104;50.348;7.620;2022-12-29T00:35:39;11.40;99.90
6146;DHT22;3104;50.348;7.620;2022-12-29T00:38:06;11.40;99.90
6146;DHT22;3104;50.348;7.620;2022-12-29T00:40:51;11.40;99.90
6146;DHT22;3104;50.348;7.620;2022-12-29T00:43:35;11.40;99.90
6146;DHT22;3104;50.348;7.620;2022-12-29T00:46:19;11.40;99.90
6146;DHT22;3104;50.348;7.620;2022-12-29T00:48:45;11.30;99.90
6146;DHT22;3104;50.348;7.620;2022-12-29T00:51:29;11.30;99.90
6146;DHT22;3104;50.348;7.620;2022-12-29T00:53:55;11.30;99.90
6146;DHT22;3104;50.348;7.620;2022-12-29T00:56:21;11.30;99.90
6146;DHT22;3104;50.348;7.620;2022-12-29T00:58:46;11.30;99.90
6146;DHT22;3104;50.348;7.620;2022-12-29T01:01:12;11.30;99.90
6146;DHT22;3104;50.348;7.620;2022-12-29T01:03:38;11.30;99.90
6146;DHT22;3104;50.348;7.620;2022-12-29T01:06:08;11.20;99.90
6146;DHT22;3104;50.348;7.620;2022-12-29T01:08:34;11.20;99.90
6146;DHT22;3104;50.348;7.620;2022-12-29T01:11:06;11.20;99.90
6146;DHT22;3104;50.348;7.620;2022-12-29T01:13:33;11.30;99.90
6146;DHT22;3104;50.348;7.620;2022-12-29T01:15:58;11.30;99.90
6146;DHT22;3104;50.348;7.620;2022-12-29T01:18:25;11.40;99.90
6146;DHT22;3104;50.348;7.620;2022-12-29T01:20:57;11.30;99.90
6146;DHT22;3104;50.348;7.620;2022-12-29T01:23:23;11.30;99.90
6146;DHT22;3104;50.348;7.620;2022-12-29T01:25:48;11.40;99.90
6146;DHT22;3104;50.348;7.620;2022-12-29T01:28:14;11.40;99.90
6146;DHT22;3104;50.348;7.620;2022-12-29T01:30:40;11.40;99.90
6146;DHT22;3104;50.348;7.620;2022-12-29T01:33:05;11.50;99.90
6146;DHT22;3104;50.348;7.620;2022-12-29T01:35:31;11.40;99.90
6146;DHT22;3104;50.348;7.620;2022-12-29T01:37:57;11.40;99.90
6146;DHT22;3104;50.348;7.620;2022-12-29T01:40:22;11.50;99.90
6146;DHT22;3104;50.348;7.620;2022-12-29T01:42:48;11.50;99.90
6146;DHT22;3104;50.348;7.620;2022-12-29T01:45:15;11.60;99.90
6146;DHT22;3104;50.348;7.620;2022-12-29T01:47:55;11.50;99.90
6146;DHT22;3104;50.348;7.620;2022-12-29T01:50:36;11.60;99.90
6146;DHT22;3104;50.348;7.620;2022-12-29T01:53:15;11.60;99.90
6146;DHT22;3104;50.348;7.620;2022-12-29T01:55:52;11.70;99.90
6146;DHT22;3104;50.348;7.620;2022-12-29T01:58:22;11.80;99.90
6146;DHT22;3104;50.348;7.620;2022-12-29T02:00:49;11.80;99.90
6146;DHT22;3104;50.348;7.620;2022-12-29T02:03:15;11.80;99.90
6146;DHT22;3104;50.348;7.620;2022-12-29T02:08:32;11.80;99.90
6146;DHT22;3104;50.348;7.620;2022-12-29T02:10:59;11.80;99.90
6146;DHT22;3104;50.348;7.620;2022-12-29T02:13:26;11.80;99.90
6146;DHT22;3104;50.348;7.620;2022-12-29T02:16:17;11.80;99.90
6146;DHT22;3104;50.348;7.620;2022-12-29T02:36:45;11.80;99.90
6146;DHT22;3104;50.348;7.620;2022-12-29T02:39:34;11.70;99.90
6146;DHT22;3104;50.348;7.620;2022-12-29T02:42:29;11.80;99.90
6146;DHT22;3104;50.348;7.620;2022-12-29T02:45:13;11.80;99.90
6146;DHT22;3104;50.348;7.620;2022-12-29T02:48:09;11.80;99.90
6146;DHT22;3104;50.348;7.620;2022-12-29T02:51:07;11.80;99.90
6146;DHT22;3104;50.348;7.620;2022-12-29T02:53:32;11.80;99.90
6146;DHT22;3104;50.348;7.620;2022-12-29T02:56:17;11.80;99.90
6146;DHT22;3104;50.348;7.620;2022-12-29T02:58:42;11.80;99.90
6146;DHT22;3104;50.348;7.620;2022-12-29T03:04:10;11.70;99.90
6146;DHT22;3104;50.348;7.620;2022-12-29T03:15:03;11.60;99.90
6146;DHT22;3104;50.348;7.620;2022-12-29T03:18:02;11.50;99.90
6146;DHT22;3104;50.348;7.620;2022-12-29T03:21:02;11.50;99.90
6146;DHT22;3104;50.348;7.620;2022-12-29T03:23:30;11.50;99.90
6146;DHT22;3104;50.348;7.620;2022-12-29T03:25:59;11.50;99.90
6146;DHT22;3104;50.348;7.620;2022-12-29T03:28:28;11.50;99.90
6146;DHT22;3104;50.348;7.620;2022-12-29T03:30:57;11.50;99.90
6146;DHT22;3104;50.348;7.620;2022-12-29T03:33:26;11.50;99.90
6146;DHT22;3104;50.348;7.620;2022-12-29T03:35:55;11.50;99.90
6146;DHT22;3104;50.348;7.620;2022-12-29T03:38:46;11.60;99.90
6146;DHT22;3104;50.348;7.620;2022-12-29T03:41:19;11.60;99.90
6146;DHT22;3104;50.348;7.620;2022-12-29T03:43:46;11.60;99.90
6146;DHT22;3104;50.348;7.620;2022-12-29T03:46:11;11.70;99.90
6146;DHT22;3104;50.348;7.620;2022-12-29T03:48:37;11.70;99.90
6146;DHT22;3104;50.348;7.620;2022-12-29T03:51:03;11.80;99.90
6146;DHT22;3104;50.348;7.620;2022-12-29T03:53:28;11.80;99.90
6146;DHT22;3104;50.348;7.620;2022-12-29T03:55:54;11.80;99.90
6146;DHT22;3104;50.348;7.620;2022-12-29T03:58:19;11.80;99.90
6146;DHT22;3104;50.348;7.620;2022-12-29T04:00:45;11.80;99.90
6146;DHT22;3104;50.348;7.620;2022-12-29T04:03:11;11.90;99.90
6146;DHT22;3104;50.348;7.620;2022-12-29T04:05:36;11.90;99.90
6146;DHT22;3104;50.348;7.620;2022-12-29T04:08:02;11.90;99.90
6146;DHT22;3104;50.348;7.620;2022-12-29T04:10:27;11.90;99.90
6146;DHT22;3104;50.348;7.620;2022-12-29T04:12:53;11.90;99.90
6146;DHT22;3104;50.348;7.620;2022-12-29T04:15:19;12.00;99.90
6146;DHT22;3104;50.348;7.620;2022-12-29T04:17:44;12.00;99.90
6146;DHT22;3104;50.348;7.620;2022-12-29T04:20:10;12.00;99.90
6146;DHT22;3104;50.348;7.620;2022-12-29T04:23:04;12.00;99.90
6146;DHT22;3104;50.348;7.620;2022-12-29T04:25:31;12.00;99.90
6146;DHT22;3104;50.348;7.620;2022-12-29T04:27:57;12.00;99.90
6146;DHT22;3104;50.348;7.620;2022-12-29T04:30:22;12.00;99.90
6146;DHT22;3104;50.348;7.620;2022-12-29T04:32:49;12.00;99.90
6146;DHT22;3104;50.348;7.620;2022-12-29T04:35:15;11.90;99.90
6146;DHT22;3104;50.348;7.620;2022-12-29T04:37:40;12.00;99.90
6146;DHT22;3104;50.348;7.620;2022-12-29T04:40:07;12.00;99.90
6146;DHT22;3104;50.348;7.620;2022-12-29T04:42:32;12.00;99.90
6146;DHT22;3104;50.348;7.620;2022-12-29T04:44:58;12.00;99.90
6146;DHT22;3104;50.348;7.620;2022-12-29T04:47:24;12.10;99.90
6146;DHT22;3104;50.348;7.620;2022-12-29T04:49:50;12.00;99.90
6146;DHT22;3104;50.348;7.620;2022-12-29T04:52:15;12.10;99.90
6146;DHT22;3104;50.348;7.620;2022-12-29T04:54:41;12.10;99.90
6146;DHT22;3104;50.348;7.620;2022-12-29T04:57:06;12.10;99.90
6146;DHT22;3104;50.348;7.620;2022-12-29T04:59:32;12.10;99.90
6146;DHT22;3104;50.348;7.620;2022-12-29T05:01:58;12.10;99.90
6146;DHT22;3104;50.348;7.620;2022-12-29T05:04:23;12.10;99.90
6146;DHT22;3104;50.348;7.620;2022-12-29T05:06:49;12.10;99.90
6146;DHT22;3104;50.348;7.620;2022-12-29T05:09:14;12.10;99.90
6146;DHT22;3104;50.348;7.620;2022-12-29T05:11:40;12.20;99.90
6146;DHT22;3104;50.348;7.620;2022-12-29T05:14:06;12.20;99.90
6146;DHT22;3104;50.348;7.620;2022-12-29T05:16:31;12.20;99.90
6146;DHT22;3104;50.348;7.620;2022-12-29T05:18:57;12.20;99.90
6146;DHT22;3104;50.348;7.620;2022-12-29T05:21:22;12.20;99.90
6146;DHT22;3104;50.348;7.620;2022-12-29T05:23:48;12.20;99.90
6146;DHT22;3104;50.348;7.620;2022-12-29T05:26:14;12.20;99.90
6146;DHT22;3104;50.348;7.620;2022-12-29T05:28:39;12.20;99.90
6146;DHT22;3104;50.348;7.620;2022-12-29T05:31:05;12.10;99.90
6146;DHT22;3104;50.348;7.620;2022-12-29T05:33:31;12.10;99.90
6146;DHT22;3104;50.348;7.620;2022-12-29T05:35:56;12.10;99.90
6146;DHT22;3104;50.348;7.620;2022-12-29T05:38:22;12.20;99.90
6146;DHT22;3104;50.348;7.620;2022-12-29T05:40:47;12.10;99.90
6146;DHT22;3104;50.348;7.620;2022-12-29T05:43:13;12.20;99.90
6146;DHT22;3104;50.348;7.620;2022-12-29T05:45:39;12.20;99.90
6146;DHT22;3104;50.348;7.620;2022-12-29T05:48:04;12.10;99.90
6146;DHT22;3104;50.348;7.620;2022-12-29T05:50:30;12.20;99.90
6146;DHT22;3104;50.348;7.620;2022-12-29T05:52:56;12.20;99.90
6146;DHT22;3104;50.348;7.620;2022-12-29T05:55:21;12.20;99.90
6146;DHT22;3104;50.348;7.620;2022-12-29T05:57:47;12.20;99.90
6146;DHT22;3104;50.348;7.620;2022-12-29T06:00:13;12.20;99.90
6146;DHT22;3104;50.348;7.620;2022-12-29T06:02:39;12.20;99.90
6146;DHT22;3104;50.348;7.620;2022-12-29T06:05:05;12.10;99.90
6146;DHT22;3104;50.348;7.620;2022-12-29T06:07:31;12.10;99.90
6146;DHT22;3104;50.348;7.620;2022-12-29T06:09:56;12.10;99.90
6146;DHT22;3104;50.348;7.620;2022-12-29T06:12:22;12.10;99.90
6146;DHT22;3104;50.348;7.620;2022-12-29T06:14:47;12.20;99.90
6146;DHT22;3104;50.348;7.620;2022-12-29T06:17:13;12.10;99.90
6146;DHT22;3104;50.348;7.620;2022-12-29T06:19:38;12.10;99.90
6146;DHT22;3104;50.348;7.620;2022-12-29T06:22:04;12.10;99.90
6146;DHT22;3104;50.348;7.620;2022-12-29T06:24:30;12.00;99.90
6146;DHT22;3104;50.348;7.620;2022-12-29T06:26:55;12.00;99.90
6146;DHT22;3104;50.348;7.620;2022-12-29T06:29:21;12.10;99.90
6146;DHT22;3104;50.348;7.620;2022-12-29T06:31:47;12.10;99.90
6146;DHT22;3104;50.348;7.620;2022-12-29T06:34:14;12.10;99.90
6146;DHT22;3104;50.348;7.620;2022-12-29T06:36:40;12.10;99.90
6146;DHT22;3104;50.348;7.620;2022-12-29T06:39:05;12.10;99.90
6146;DHT22;3104;50.348;7.620;2022-12-29T06:41:31;12.10;99.90
6146;DHT22;3104;50.348;7.620;2022-12-29T06:43:57;12.20;99.90
6146;DHT22;3104;50.348;7.620;2022-12-29T06:46:23;12.00;99.90
6146;DHT22;3104;50.348;7.620;2022-12-29T06:48:48;12.00;99.90
6146;DHT22;3104;50.348;7.620;2022-12-29T06:51:14;11.90;99.90
6146;DHT22;3104;50.348;7.620;2022-12-29T06:53:40;11.90;99.90
6146;DHT22;3104;50.348;7.620;2022-12-29T06:56:05;11.90;99.90
6146;DHT22;3104;50.348;7.620;2022-12-29T06:58:32;11.80;99.90
6146;DHT22;3104;50.348;7.620;2022-12-29T07:00:57;11.80;99.90
6146;DHT22;3104;50.348;7.620;2022-12-29T07:03:23;11.70;99.90
6146;DHT22;3104;50.348;7.620;2022-12-29T07:05:49;11.70;99.90
6146;DHT22;3104;50.348;7.620;2022-12-29T07:08:14;11.80;99.90
6146;DHT22;3104;50.348;7.620;2022-12-29T07:10:40;11.70;99.90
6146;DHT22;3104;50.348;7.620;2022-12-29T07:13:06;11.80;99.90
6146;DHT22;3104;50.348;7.620;2022-12-29T07:15:33;11.70;99.90
6146;DHT22;3104;50.348;7.620;2022-12-29T07:17:59;11.70;99.90
6146;DHT22;3104;50.348;7.620;2022-12-29T07:20:25;11.80;99.90
6146;DHT22;3104;50.348;7.620;2022-12-29T07:22:50;11.70;99.90
6146;DHT22;3104;50.348;7.620;2022-12-29T07:25:16;11.70;99.90
6146;DHT22;3104;50.348;7.620;2022-12-29T07:27:42;11.60;99.90
6146;DHT22;3104;50.348;7.620;2022-12-29T07:30:08;11.60;99.90
6146;DHT22;3104;50.348;7.620;2022-12-29T07:32:35;11.50;99.90
6146;DHT22;3104;50.348;7.620;2022-12-29T07:35:01;11.50;99.90
6146;DHT22;3104;50.348;7.620;2022-12-29T07:37:26;11.40;99.90
6146;DHT22;3104;50.348;7.620;2022-12-29T07:39:52;11.30;99.90
6146;DHT22;3104;50.348;7.620;2022-12-29T07:42:18;11.10;99.90
6146;DHT22;3104;50.348;7.620;2022-12-29T07:44:43;11.00;99.90
6146;DHT22;3104;50.348;7.620;2022-12-29T07:47:09;10.90;99.90
6146;DHT22;3104;50.348;7.620;2022-12-29T07:49:34;10.90;99.90
6146;DHT22;3104;50.348;7.620;2022-12-29T07:52:00;10.80;99.90
6146;DHT22;3104;50.348;7.620;2022-12-29T07:54:25;10.90;99.90
6146;DHT22;3104;50.348;7.620;2022-12-29T07:56:51;10.90;99.90
6146;DHT22;3104;50.348;7.620;2022-12-29T07:59:17;10.90;99.90
6146;DHT22;3104;50.348;7.620;2022-12-29T08:01:42;10.90;99.90
6146;DHT22;3104;50.348;7.620;2022-12-29T08:04:08;10.80;99.90
6146;DHT22;3104;50.348;7.620;2022-12-29T08:06:34;10.80;99.90
6146;DHT22;3104;50.348;7.620;2022-12-29T08:08:59;10.90;99.90
6146;DHT22;3104;50.348;7.620;2022-12-29T08:11:26;10.90;99.90
6146;DHT22;3104;50.348;7.620;2022-12-29T08:13:52;10.80;99.90
6146;DHT22;3104;50.348;7.620;2022-12-29T08:16:17;10.80;99.90
6146;DHT22;3104;50.348;7.620;2022-12-29T08:18:43;10.80;99.90
6146;DHT22;3104;50.348;7.620;2022-12-29T08:21:09;10.80;99.90
6146;DHT22;3104;50.348;7.620;2022-12-29T08:23:35;10.80;99.90
6146;DHT22;3104;50.348;7.620;2022-12-29T08:26:03;10.90;99.90
6146;DHT22;3104;50.348;7.620;2022-12-29T08:28:30;10.80;99.90
6146;DHT22;3104;50.348;7.620;2022-12-29T08:31:00;10.90;99.90
6146;DHT22;3104;50.348;7.620;2022-12-29T08:33:26;10.80;99.90
6146;DHT22;3104;50.348;7.620;2022-12-29T08:35:52;10.90;99.90
6146;DHT22;3104;50.348;7.620;2022-12-29T08:38:18;10.90;99.90
6146;DHT22;3104;50.348;7.620;2022-12-29T08:40:44;10.80;99.90
6146;DHT22;3104;50.348;7.620;2022-12-29T08:43:09;10.90;99.90
6146;DHT22;3104;50.348;7.620;2022-12-29T08:45:35;10.90;99.90
6146;DHT22;3104;50.348;7.620;2022-12-29T08:48:00;10.90;99.90
6146;DHT22;3104;50.348;7.620;2022-12-29T08:50:26;10.90;99.90
6146;DHT22;3104;50.348;7.620;2022-12-29T08:52:52;11.00;99.90
6146;DHT22;3104;50.348;7.620;2022-12-29T08:55:17;10.90;99.90
6146;DHT22;3104;50.348;7.620;2022-12-29T08:57:43;11.00;99.90
6146;DHT22;3104;50.348;7.620;2022-12-29T09:00:09;10.90;99.90
6146;DHT22;3104;50.348;7.620;2022-12-29T09:02:35;10.90;99.90
6146;DHT22;3104;50.348;7.620;2022-12-29T09:05:00;10.90;99.90
6146;DHT22;3104;50.348;7.620;2022-12-29T09:07:26;10.90;99.90
6146;DHT22;3104;50.348;7.620;2022-12-29T09:09:52;10.90;99.90
6146;DHT22;3104;50.348;7.620;2022-12-29T09:12:18;10.90;99.90
6146;DHT22;3104;50.348;7.620;2022-12-29T09:14:45;10.90;99.90
6146;DHT22;3104;50.348;7.620;2022-12-29T09:17:11;11.00;99.90
6146;DHT22;3104;50.348;7.620;2022-12-29T09:19:55;11.10;99.90
6146;DHT22;3104;50.348;7.620;2022-12-29T09:22:20;11.10;99.90
6146;DHT22;3104;50.348;7.620;2022-12-29T09:24:46;11.20;99.90
6146;DHT22;3104;50.348;7.620;2022-12-29T09:27:12;11.10;99.90
6146;DHT22;3104;50.348;7.620;2022-12-29T09:29:37;11.10;99.90
6146;DHT22;3104;50.348;7.620;2022-12-29T09:32:03;11.20;99.90
6146;DHT22;3104;50.348;7.620;2022-12-29T09:34:29;11.20;99.90
6146;DHT22;3104;50.348;7.620;2022-12-29T09:36:54;11.20;99.90
6146;DHT22;3104;50.348;7.620;2022-12-29T09:39:21;11.30;99.90
6146;DHT22;3104;50.348;7.620;2022-12-29T09:47:54;11.20;99.90
6146;DHT22;3104;50.348;7.620;2022-12-29T09:50:32;11.30;99.90
6146;DHT22;3104;50.348;7.620;2022-12-29T09:53:17;11.30;99.90
6146;DHT22;3104;50.348;7.620;2022-12-29T09:55:53;11.30;99.90
6146;DHT22;3104;50.348;7.620;2022-12-29T09:58:26;11.30;99.90
6146;DHT22;3104;50.348;7.620;2022-12-29T10:01:07;11.30;99.90
6146;DHT22;3104;50.348;7.620;2022-12-29T10:03:47;11.20;99.90
6146;DHT22;3104;50.348;7.620;2022-12-29T10:06:32;11.10;99.90
6146;DHT22;3104;50.348;7.620;2022-12-29T10:09:02;11.00;99.90
6146;DHT22;3104;50.348;7.620;2022-12-29T10:17:44;10.80;99.90
6146;DHT22;3104;50.348;7.620;2022-12-29T10:25:24;10.90;99.90
6146;DHT22;3104;50.348;7.620;2022-12-29T10:27:52;11.00;99.90
6146;DHT22;3104;50.348;7.620;2022-12-29T10:30:19;11.00;99.90
6146;DHT22;3104;50.348;7.620;2022-12-29T10:32:47;11.20;99.90
6146;DHT22;3104;50.348;7.620;2022-12-29T10:35:21;11.20;99.90
6146;DHT22;3104;50.348;7.620;2022-12-29T10:37:59;11.30;99.90
6146;DHT22;3104;50.348;7.620;2022-12-29T10:40:50;11.40;99.90
6146;DHT22;3104;50.348;7.620;2022-12-29T10:43:29;11.40;99.90
6146;DHT22;3104;50.348;7.620;2022-12-29T10:46:05;11.20;99.90
6146;DHT22;3104;50.348;7.620;2022-12-29T10:48:33;11.20;99.90
6146;DHT22;3104;50.348;7.620;2022-12-29T10:51:01;11.10;99.90
6146;DHT22;3104;50.348;7.620;2022-12-29T10:53:45;11.10;99.90
6146;DHT22;3104;50.348;7.620;2022-12-29T10:56:30;11.10;99.90
6146;DHT22;3104;50.348;7.620;2022-12-29T10:59:01;10.90;99.90
6146;DHT22;3104;50.348;7.620;2022-12-29T11:01:37;10.90;99.90
6146;DHT22;3104;50.348;7.620;2022-12-29T11:04:27;10.90;99.90
6146;DHT22;3104;50.348;7.620;2022-12-29T11:06:55;11.00;99.90
6146;DHT22;3104;50.348;7.620;2022-12-29T11:09:27;11.00;99.90
6146;DHT22;3104;50.348;7.620;2022-12-29T11:11:53;11.10;99.90
6146;DHT22;3104;50.348;7.620;2022-12-29T11:14:25;11.10;99.90
6146;DHT22;3104;50.348;7.620;2022-12-29T11:16:59;11.10;99.90
6146;DHT22;3104;50.348;7.620;2022-12-29T11:19:31;11.10;99.90
6146;DHT22;3104;50.348;7.620;2022-12-29T11:24:47;11.30;99.90
6146;DHT22;3104;50.348;7.620;2022-12-29T11:27:22;11.20;99.90
6146;DHT22;3104;50.348;7.620;2022-12-29T11:29:50;11.20;99.90
6146;DHT22;3104;50.348;7.620;2022-12-29T11:32:24;11.30;99.90
6146;DHT22;3104;50.348;7.620;2022-12-29T11:34:51;11.30;99.90
6146;DHT22;3104;50.348;7.620;2022-12-29T11:37:27;11.30;99.90
6146;DHT22;3104;50.348;7.620;2022-12-29T11:40:06;11.40;99.90
6146;DHT22;3104;50.348;7.620;2022-12-29T11:42:57;11.40;99.90
6146;DHT22;3104;50.348;7.620;2022-12-29T11:45:26;11.40;99.90
6146;DHT22;3104;50.348;7.620;2022-12-29T11:48:06;11.50;99.90
6146;DHT22;3104;50.348;7.620;2022-12-29T11:50:35;11.70;99.90
6146;DHT22;3104;50.348;7.620;2022-12-29T11:53:01;11.70;99.90
6146;DHT22;3104;50.348;7.620;2022-12-29T11:55:28;11.70;99.90
6146;DHT22;3104;50.348;7.620;2022-12-29T11:57:56;11.50;99.90
6146;DHT22;3104;50.348;7.620;2022-12-29T12:00:24;11.40;99.90
6146;DHT22;3104;50.348;7.620;2022-12-29T12:03:01;11.40;99.90
6146;DHT22;3104;50.348;7.620;2022-12-29T12:05:39;11.40;99.90
6146;DHT22;3104;50.348;7.620;2022-12-29T12:08:27;11.50;99.90
6146;DHT22;3104;50.348;7.620;2022-12-29T12:16:39;11.40;99.90
6146;DHT22;3104;50.348;7.620;2022-12-29T12:22:21;11.80;99.90
6146;DHT22;3104;50.348;7.620;2022-12-29T12:27:51;11.90;99.90
6146;DHT22;3104;50.348;7.620;2022-12-29T12:30:24;12.30;99.90
6146;DHT22;3104;50.348;7.620;2022-12-29T12:32:58;12.40;99.90
6146;DHT22;3104;50.348;7.620;2022-12-29T12:41:09;12.00;99.90
6146;DHT22;3104;50.348;7.620;2022-12-29T12:43:46;11.80;99.90
6146;DHT22;3104;50.348;7.620;2022-12-29T12:49:16;11.80;99.90
6146;DHT22;3104;50.348;7.620;2022-12-29T13:00:09;11.70;99.90
6146;DHT22;3104;50.348;7.620;2022-12-29T13:14:24;11.60;99.90
6146;DHT22;3104;50.348;7.620;2022-12-29T13:17:16;11.60;99.90
6146;DHT22;3104;50.348;7.620;2022-12-29T13:23:00;11.60;99.90
6146;DHT22;3104;50.348;7.620;2022-12-29T13:25:41;11.50;99.90
6146;DHT22;3104;50.348;7.620;2022-12-29T13:31:04;11.60;99.90
6146;DHT22;3104;50.348;7.620;2022-12-29T13:33:50;11.60;99.90
6146;DHT22;3104;50.348;7.620;2022-12-29T13:36:22;11.60;99.90
6146;DHT22;3104;50.348;7.620;2022-12-29T13:38:55;11.60;99.90
6146;DHT22;3104;50.348;7.620;2022-12-29T13:44:04;11.90;99.90
6146;DHT22;3104;50.348;7.620;2022-12-29T13:46:37;12.10;99.90
6146;DHT22;3104;50.348;7.620;2022-12-29T13:49:05;12.10;99.90
6146;DHT22;3104;50.348;7.620;2022-12-29T13:51:32;12.00;99.90
6146;DHT22;3104;50.348;7.620;2022-12-29T13:56:52;12.00;99.90
6146;DHT22;3104;50.348;7.620;2022-12-29T13:59:33;11.80;99.90
6146;DHT22;3104;50.348;7.620;2022-12-29T14:02:29;11.80;99.90
6146;DHT22;3104;50.348;7.620;2022-12-29T14:05:03;11.60;99.90
6146;DHT22;3104;50.348;7.620;2022-12-29T14:07:36;11.50;99.90
6146;DHT22;3104;50.348;7.620;2022-12-29T14:10:03;11.50;99.90
6146;DHT22;3104;50.348;7.620;2022-12-29T14:12:40;11.60;99.90
6146;DHT22;3104;50.348;7.620;2022-12-29T14:15:19;11.50;99.90
6146;DHT22;3104;50.348;7.620;2022-12-29T14:20:53;11.40;99.90
6146;DHT22;3104;50.348;7.620;2022-12-29T14:28:46;11.40;99.90
6146;DHT22;3104;50.348;7.620;2022-12-29T14:34:15;11.40;99.90
6146;DHT22;3104;50.348;7.620;2022-12-29T14:36:41;11.30;99.90
6146;DHT22;3104;50.348;7.620;2022-12-29T14:42:12;11.40;99.90
6146;DHT22;3104;50.348;7.620;2022-12-29T14:44:53;11.40;99.90
6146;DHT22;3104;50.348;7.620;2022-12-29T14:49:52;11.20;99.90
6146;DHT22;3104;50.348;7.620;2022-12-29T14:52:21;11.10;99.90
6146;DHT22;3104;50.348;7.620;2022-12-29T14:54:52;11.10;99.90
6146;DHT22;3104;50.348;7.620;2022-12-29T14:57:37;11.10;99.90
6146;DHT22;3104;50.348;7.620;2022-12-29T15:02:38;11.10;99.90
6146;DHT22;3104;50.348;7.620;2022-12-29T15:05:14;10.90;99.90
6146;DHT22;3104;50.348;7.620;2022-12-29T15:07:45;11.00;99.90
6146;DHT22;3104;50.348;7.620;2022-12-29T15:10:15;10.90;99.90
6146;DHT22;3104;50.348;7.620;2022-12-29T15:12:47;10.80;99.90
6146;DHT22;3104;50.348;7.620;2022-12-29T15:15:20;10.90;99.90
6146;DHT22;3104;50.348;7.620;2022-12-29T15:17:46;10.70;99.90
6146;DHT22;3104;50.348;7.620;2022-12-29T15:20:31;10.70;99.90
6146;DHT22;3104;50.348;7.620;2022-12-29T15:22:57;10.70;99.90
6146;DHT22;3104;50.348;7.620;2022-12-29T15:25:24;10.60;99.90
6146;DHT22;3104;50.348;7.620;2022-12-29T15:28:01;10.60;99.90
6146;DHT22;3104;50.348;7.620;2022-12-29T15:30:27;10.60;99.90
6146;DHT22;3104;50.348;7.620;2022-12-29T15:32:53;10.60;99.90
6146;DHT22;3104;50.348;7.620;2022-12-29T15:37:55;10.60;99.90
6146;DHT22;3104;50.348;7.620;2022-12-29T15:40:24;10.50;99.90
6146;DHT22;3104;50.348;7.620;2022-12-29T15:43:00;10.50;99.90
6146;DHT22;3104;50.348;7.620;2022-12-29T15:45:32;10.40;99.90
6146;DHT22;3104;50.348;7.620;2022-12-29T15:47:58;10.40;99.90
6146;DHT22;3104;50.348;7.620;2022-12-29T15:50:30;10.40;99.90
6146;DHT22;3104;50.348;7.620;2022-12-29T15:52:57;10.40;99.90
6146;DHT22;3104;50.348;7.620;2022-12-29T15:55:33;10.40;99.90
6146;DHT22;3104;50.348;7.620;2022-12-29T15:58:01;10.40;99.90
6146;DHT22;3104;50.348;7.620;2022-12-29T16:00:32;10.40;99.90
6146;DHT22;3104;50.348;7.620;2022-12-29T16:03:00;10.50;99.90
6146;DHT22;3104;50.348;7.620;2022-12-29T16:05:37;10.40;99.90
6146;DHT22;3104;50.348;7.620;2022-12-29T16:08:15;10.30;99.90
6146;DHT22;3104;50.348;7.620;2022-12-29T16:10:45;10.30;99.90
6146;DHT22;3104;50.348;7.620;2022-12-29T16:13:40;10.30;99.90
6146;DHT22;3104;50.348;7.620;2022-12-29T16:16:15;10.30;99.90
6146;DHT22;3104;50.348;7.620;2022-12-29T16:18:42;10.30;99.90
6146;DHT22;3104;50.348;7.620;2022-12-29T16:21:21;10.30;99.90
6146;DHT22;3104;50.348;7.620;2022-12-29T16:23:50;10.30;99.90
6146;DHT22;3104;50.348;7.620;2022-12-29T16:26:20;10.30;99.90
6146;DHT22;3104;50.348;7.620;2022-12-29T16:28:53;10.30;99.90
6146;DHT22;3104;50.348;7.620;2022-12-29T16:31:48;10.20;99.90
6146;DHT22;3104;50.348;7.620;2022-12-29T16:34:32;10.10;99.90
6146;DHT22;3104;50.348;7.620;2022-12-29T16:37:03;10.10;99.90
6146;DHT22;3104;50.348;7.620;2022-12-29T16:39:36;10.10;99.90
6146;DHT22;3104;50.348;7.620;2022-12-29T16:42:33;10.10;99.90
6146;DHT22;3104;50.348;7.620;2022-12-29T16:48:09;10.10;99.90
6146;DHT22;3104;50.348;7.620;2022-12-29T16:50:38;10.10;99.90
6146;DHT22;3104;50.348;7.620;2022-12-29T16:53:15;10.00;99.90
6146;DHT22;3104;50.348;7.620;2022-12-29T16:55:47;10.00;99.90
6146;DHT22;3104;50.348;7.620;2022-12-29T16:58:25;10.00;99.90
6146;DHT22;3104;50.348;7.620;2022-12-29T17:00:55;9.90;99.90
6146;DHT22;3104;50.348;7.620;2022-12-29T17:03:22;9.90;99.90
6146;DHT22;3104;50.348;7.620;2022-12-29T17:05:48;9.90;99.90
6146;DHT22;3104;50.348;7.620;2022-12-29T17:08:18;9.80;99.90
6146;DHT22;3104;50.348;7.620;2022-12-29T17:10:54;9.90;99.90
6146;DHT22;3104;50.348;7.620;2022-12-29T17:13:39;9.90;99.90
6146;DHT22;3104;50.348;7.620;2022-12-29T17:16:07;9.90;99.90
6146;DHT22;3104;50.348;7.620;2022-12-29T17:18:34;9.80;99.90
6146;DHT22;3104;50.348;7.620;2022-12-29T17:21:00;9.90;99.90
6146;DHT22;3104;50.348;7.620;2022-12-29T17:23:32;9.80;99.90
6146;DHT22;3104;50.348;7.620;2022-12-29T17:25:58;9.80;99.90
6146;DHT22;3104;50.348;7.620;2022-12-29T17:28:24;9.80;99.90
6146;DHT22;3104;50.348;7.620;2022-12-29T17:30:52;9.80;99.90
6146;DHT22;3104;50.348;7.620;2022-12-29T17:33:20;9.80;99.90
6146;DHT22;3104;50.348;7.620;2022-12-29T17:35:45;9.90;99.90
6146;DHT22;3104;50.348;7.620;2022-12-29T17:38:19;9.90;99.90
6146;DHT22;3104;50.348;7.620;2022-12-29T17:40:46;9.80;99.90
6146;DHT22;3104;50.348;7.620;2022-12-29T17:43:13;9.80;99.90
6146;DHT22;3104;50.348;7.620;2022-12-29T17:45:40;9.90;99.90
6146;DHT22;3104;50.348;7.620;2022-12-29T17:48:14;9.80;99.90
6146;DHT22;3104;50.348;7.620;2022-12-29T17:50:41;9.80;99.90
6146;DHT22;3104;50.348;7.620;2022-12-29T17:53:13;9.80;99.90
6146;DHT22;3104;50.348;7.620;2022-12-29T17:55:40;9.80;99.90
6146;DHT22;3104;50.348;7.620;2022-12-29T17:58:20;9.70;99.90
6146;DHT22;3104;50.348;7.620;2022-12-29T18:00:48;9.70;99.90
6146;DHT22;3104;50.348;7.620;2022-12-29T18:03:26;9.70;99.90
6146;DHT22;3104;50.348;7.620;2022-12-29T18:05:52;9.70;99.90
6146;DHT22;3104;50.348;7.620;2022-12-29T18:08:17;9.70;99.90
6146;DHT22;3104;50.348;7.620;2022-12-29T18:10:43;9.60;99.90
6146;DHT22;3104;50.348;7.620;2022-12-29T18:13:19;9.60;99.90
6146;DHT22;3104;50.348;7.620;2022-12-29T18:15:45;9.60;99.90
6146;DHT22;3104;50.348;7.620;2022-12-29T18:18:22;9.50;99.90
6146;DHT22;3104;50.348;7.620;2022-12-29T18:20:51;9.50;99.90
6146;DHT22;3104;50.348;7.620;2022-12-29T18:23:19;9.50;99.90
6146;DHT22;3104;50.348;7.620;2022-12-29T18:28:13;9.70;99.90
6146;DHT22;3104;50.348;7.620;2022-12-29T18:30:39;9.70;99.90
6146;DHT22;3104;50.348;7.620;2022-12-29T18:33:05;9.70;99.90
6146;DHT22;3104;50.348;7.620;2022-12-29T18:35:43;9.60;99.90